TimeMST,TemperatureF,Dew PointF,Humidity,Sea Level PressureIn,VisibilityMPH,Wind Direction,Wind SpeedMPH,Gust SpeedMPH,PrecipitationIn,Events,Conditions,WindDirDegrees,DateUTC
12:53 AM,28.9,19.9,69,29.77,10.0,NNW,24.2,33.4,N/A,,Overcast,330,2013-02-18 07:53:00
1:53 AM,28.0,19.9,72,29.77,10.0,NNW,21.9,-,N/A,,Overcast,340,2013-02-18 08:53:00
2:53 AM,27.0,19.0,72,29.78,10.0,NNW,24.2,31.1,N/A,,Mostly Cloudy,330,2013-02-18 09:53:00
3:53 AM,27.0,19.0,72,29.82,10.0,NNW,20.7,26.5,N/A,,Clear,330,2013-02-18 10:53:00
4:53 AM,27.0,19.0,72,29.85,10.0,NW,13.8,-,N/A,,Mostly Cloudy,320,2013-02-18 11:53:00
5:53 AM,27.0,17.1,66,29.88,10.0,NW,16.1,-,N/A,,Mostly Cloudy,320,2013-02-18 12:53:00
6:53 AM,27.0,18.0,69,29.92,10.0,NNW,19.6,29.9,N/A,,Clear,330,2013-02-18 13:53:00
7:53 AM,30.9,18.0,59,29.95,10.0,NNW,21.9,27.6,N/A,,Clear,330,2013-02-18 14:53:00
8:53 AM,33.1,19.0,56,29.98,10.0,NNW,29.9,36.8,N/A,,Scattered Clouds,340,2013-02-18 15:53:00
9:53 AM,36.0,16.0,44,29.98,10.0,NNW,27.6,35.7,N/A,,Clear,330,2013-02-18 16:53:00
10:53 AM,37.0,15.1,41,30.00,10.0,NNW,29.9,36.8,N/A,,Partly Cloudy,330,2013-02-18 17:53:00
11:53 AM,39.0,14.0,36,29.99,10.0,NNW,28.8,43.7,N/A,,Clear,340,2013-02-18 18:53:00
12:53 PM,39.0,14.0,36,30.00,10.0,NW,25.3,39.1,N/A,,Scattered Clouds,320,2013-02-18 19:53:00
1:53 PM,37.0,14.0,39,30.01,10.0,NNW,20.7,-,N/A,,Mostly Cloudy,330,2013-02-18 20:53:00
2:53 PM,35.1,16.0,46,30.05,10.0,NNW,27.6,33.4,N/A,,Overcast,330,2013-02-18 21:53:00
3:53 PM,33.1,19.9,59,30.08,10.0,North,21.9,-,N/A,,Mostly Cloudy,350,2013-02-18 22:53:00
4:01 PM,32.0,19.4,60,30.00,10.0,North,20.7,-,N/A,,Mostly Cloudy,350,2013-02-18 23:01:00
4:53 PM,30.0,21.0,69,30.09,10.0,NW,12.7,-,N/A,,Clear,310,2013-02-18 23:53:00
5:53 PM,28.0,19.0,69,30.12,10.0,NW,13.8,-,N/A,,Mostly Cloudy,320,2013-02-19 00:53:00
6:53 PM,25.0,19.0,78,30.14,10.0,NNW,12.7,-,N/A,,Clear,330,2013-02-19 01:53:00
7:53 PM,21.0,18.0,88,30.16,10.0,West,8.1,-,N/A,,Partly Cloudy,280,2013-02-19 02:53:00
8:53 PM,19.9,17.1,89,30.18,10.0,NW,6.9,-,N/A,,Partly Cloudy,310,2013-02-19 03:53:00
9:53 PM,19.0,14.0,81,30.18,10.0,North,9.2,-,N/A,,Clear,350,2013-02-19 04:53:00
10:53 PM,10.0,6.1,84,30.21,10.0,WNW,4.6,-,N/A,,Clear,300,2013-02-19 05:53:00
11:53 PM,14.0,10.0,84,30.19,10.0,NW,6.9,-,N/A,,Clear,320,2013-02-19 06:53:00